Flight Track Log - Related Links

Times and Time Zones

All times are in EST time to prevent confusion due to time zone crossing. See the UAL3853 flight status page for this flight to view local times or setup timezone preferences in your user account.


Time Position Orientation Groundspeed Altitude Reporting Facility
EST Latitude Longitude Course Direction KTS MPH feet Rate Location/Type
Wed 08:55:11 PM 40.7333 -74.1167 62° Northeast 189 217 2,400  Level New York TRACON
Wed 08:56:11 PM 40.7833 -74.0833 27° Northeast 232 267 4,500 2,053 Climbing New York TRACON
Wed 08:57:00 PM 40.9534 -73.6069 48° Northeast  Level Estimated
Wed 08:57:05 PM 40.8500 -74.0500 21° North 256 295 6,300  Level New York TRACON
Wed 08:58:00 PM 41.0182 -73.4657 53° Northeast  Level Estimated
Wed 08:59:00 PM 41.0828 -73.3243 56° Northeast  Level Estimated
Wed 08:59:15 PM 40.9439 -73.9233 46° Northeast 266 306 9,700  Level Boston Center
Wed 09:00:00 PM 41.1472 -73.1826 62° Northeast  Level Estimated
Wed 09:00:14 PM 41.0028 -73.8214 53° Northeast 302 348 11,100  Level Boston Center
Wed 09:01:15 PM 41.0617 -73.7172 53° Northeast 349 402 12,100 1,161 Climbing Boston Center
Wed 09:02:18 PM 41.1211 -73.6103 54° Northeast 361 415 13,500 1,073 Climbing Boston Center
Wed 09:03:18 PM 41.1817 -73.5006 54° Northeast 370 426 14,300 850 Climbing Boston Center
Wed 09:04:18 PM 41.2514 -73.3747 54° Northeast 389 448 15,200 942 Climbing Boston Center
Wed 09:05:19 PM 41.3183 -73.2567 53° Northeast 397 457 16,200 992 Climbing Boston Center
Wed 09:06:19 PM 41.3825 -73.1381 54° Northeast 396 456 17,200 968 Climbing Boston Center
Wed 09:07:23 PM 41.4389 -73.0114 59° Northeast 397 457 18,200 629 Climbing Boston Center
Wed 09:08:23 PM 41.4950 -72.8833 60° Northeast 401 461 18,500 655 Climbing Boston Center
Wed 09:09:22 PM 41.5506 -72.7550 60° Northeast 397 457 19,500 984 Climbing Boston Center
Wed 09:10:25 PM 41.6064 -72.6253 60° Northeast 400 460 20,500 1,016 Climbing Boston Center
Wed 09:11:26 PM 41.6656 -72.4903 60° Northeast 415 478 21,600 1,230 Climbing Boston Center
Wed 09:12:27 PM 41.7233 -72.3606 59° Northeast 412 474 23,000 1,438 Climbing Boston Center
Wed 09:13:27 PM 41.7811 -72.2353 58° Northeast 403 464 24,500 1,438 Climbing Boston Center
Wed 09:14:28 PM 41.8336 -72.1100 61° Northeast 392 451 25,900 1,190 Climbing Boston Center
Wed 09:15:28 PM 41.8864 -71.9817 61° Northeast 395 455 26,900 992 Climbing Boston Center
Wed 09:16:29 PM 41.9397 -71.8511 61° Northeast 401 461 27,900 992 Climbing Boston Center
Wed 09:17:29 PM 41.9950 -71.7203 60° Northeast 407 468 28,900 927 Climbing Boston Center
Wed 09:18:32 PM 42.0483 -71.5881 61° Northeast 407 468 29,800 1,024 Climbing Boston Center
Wed 09:19:32 PM 42.1142 -71.4292 61° Northeast 411 473 31,000 600 Climbing Boston Center
Wed 09:20:32 PM 42.1697 -71.2889 62° Northeast 425 489 31,000  Level Boston Center
Wed 09:21:34 PM 42.2261 -71.1578 60° Northeast 449 517 31,000  Level Boston Center
Wed 09:22:35 PM 42.2872 -71.0039 62° Northeast 464 534 31,000  Level Boston Center
Wed 09:23:36 PM 42.3497 -70.8506 61° Northeast 464 534 31,000  Level Boston Center
Wed 09:24:35 PM 42.4161 -70.6819 62° Northeast 467 537 31,000  Level Boston Center
Wed 09:25:39 PM 42.4764 -70.5303 62° Northeast 463 533 31,000  Level Boston Center
Wed 09:26:39 PM 42.5358 -70.3775 62° Northeast 461 531 31,000  Level Boston Center
Wed 09:27:38 PM 42.5958 -70.2225 62° Northeast 464 534 31,000  Level Boston Center
Wed 09:28:39 PM 42.6561 -70.0675 62° Northeast 466 536 31,000  Level Boston Center
Wed 09:29:42 PM 42.7161 -69.9131 62° Northeast 465 535 31,000  Level Boston Center
Wed 09:30:43 PM 42.7750 -69.7581 63° Northeast 464 534 31,000  Level Boston Center
Wed 09:31:43 PM 42.8447 -69.5783 62° Northeast 464 534 31,000  Level Boston Center
Wed 09:32:43 PM 42.9053 -69.4253 62° Northeast 460 529 31,000  Level Boston Center
Wed 09:33:45 PM 42.9639 -69.2686 63° Northeast 462 532 31,000  Level Boston Center
Wed 09:34:46 PM 43.0222 -69.1111 63° Northeast 465 535 31,000  Level Boston Center
Wed 09:35:47 PM 43.0814 -68.9533 63° Northeast 466 536 31,000  Level Boston Center
Wed 09:36:25 PM 43.1167 -68.8333 68° East 460 529 31,000  Level Moncton Center
Wed 09:37:25 PM 43.1667 -68.6833 65° Northeast 460 529 31,000  Level Moncton Center
Wed 09:38:25 PM 43.2167 -68.5167 68° East 460 529 31,000  Level Moncton Center
Wed 09:39:25 PM 43.2833 -68.3667 59° Northeast 460 529 31,000  Level Moncton Center
Wed 09:40:25 PM 43.3333 -68.1833 69° East 460 529 31,000  Level Moncton Center
Wed 09:41:25 PM 43.3833 -68.0500 63° Northeast 460 529 31,000  Level Moncton Center
Wed 09:42:25 PM 43.4500 -67.8667 63° Northeast 460 529 31,000  Level Moncton Center
Wed 09:43:25 PM 43.5000 -67.7167 65° Northeast 460 529 31,000  Level Moncton Center
Wed 09:44:25 PM 43.5500 -67.5500 67° East 460 529 31,000  Level Moncton Center
Wed 09:45:25 PM 43.6167 -67.4000 58° Northeast 460 529 31,000  Level Moncton Center
Wed 09:45:55 PM 43.6500 -67.3550 44° Northeast 464 534 31,000  Level Boston Center
Wed 09:46:56 PM 43.7058 -67.1942 64° Northeast 467 537 31,000  Level Boston Center
Wed 09:48:25 PM 43.7833 -66.9167 69° East 460 529 31,000  Level Moncton Center
Wed 09:49:25 PM 43.8500 -66.7667 58° Northeast 460 529 31,000  Level Moncton Center
Wed 09:50:25 PM 43.9000 -66.6000 67° East 460 529 31,000  Level Moncton Center
Wed 09:51:25 PM 43.9500 -66.4167 69° East 460 529 31,000  Level Moncton Center
Wed 09:52:25 PM 44.0000 -66.2833 62° Northeast 460 529 31,000  Level Moncton Center
Wed 09:53:25 PM 44.0500 -66.1167 67° East 460 529 31,000  Level Moncton Center
Wed 09:54:25 PM 44.1167 -65.9333 63° Northeast 460 529 31,000  Level Moncton Center
Wed 09:55:25 PM 44.1667 -65.7667 67° East 460 529 31,000  Level Moncton Center
Wed 09:56:25 PM 44.2167 -65.6167 65° Northeast 460 529 31,000  Level Moncton Center
Wed 09:57:25 PM 44.2667 -65.4500 67° East 460 529 31,000  Level Moncton Center
Wed 09:58:25 PM 44.3167 -65.2833 67° East 450 518 31,000 -250 Level Moncton Center
Wed 09:59:25 PM 44.3667 -65.1167 67° East 450 518 30,500 -950 Descending Moncton Center
Wed 10:00:25 PM 44.4167 -64.9667 65° Northeast 450 518 29,100 -750 Descending Moncton Center
Wed 10:01:25 PM 44.4667 -64.8167 65° Northeast 450 518 29,000 -250 Descending Moncton Center
Wed 10:02:25 PM 44.5167 -64.6500 67° East 450 518 28,600 -1,550 Descending Moncton Center
Wed 10:03:25 PM 44.5667 -64.4833 67° East 440 506 25,900 -2,900 Descending Moncton Center
Wed 10:04:25 PM 44.6167 -64.3333 65° Northeast 440 506 22,800 -3,250 Descending Moncton Center
Wed 10:05:25 PM 44.6500 -64.1833 73° East 410 472 19,400 -3,550 Descending Moncton Center
Wed 10:06:25 PM 44.6667 -64.0500 80° East 380 437 15,700 -3,700 Descending Moncton Center
Wed 10:07:25 PM 44.6833 -63.9000 81° East 360 414 12,000 -2,650 Descending Moncton Center
Wed 10:08:25 PM 44.7000 -63.7833 79° East 300 345 10,400 -1,900 Descending Moncton Center
Wed 10:09:25 PM 44.7167 -63.6667 79° East 250 288 8,200 -2,050 Descending Moncton Center
Wed 10:10:25 PM 44.7167 -63.6000 90° East 240 276 6,300 -2,000 Descending Moncton Center
Wed 10:11:25 PM 44.7167 -63.5000 90° East 220 253 4,200 -2,000 Descending Moncton Center
Wed 10:12:25 PM 44.7500 -63.4500 47° Northeast 180 207 2,300 -1,100 Descending Moncton Center
Wed 10:13:25 PM 44.8000 -63.4000 35° Northeast 170 196 2,000 -200 Descending Moncton Center
Wed 10:14:25 PM 44.8333 -63.4000 360° North 110 127 1,900 -250 Descending Moncton Center
Wed 10:15:25 PM 44.8500 -63.4333 305° West 110 127 1,500 -600 Descending Moncton Center
Wed 10:16:25 PM 44.8667 -63.4833 295° West 110 127 700 -800 Descending Moncton Center

Login

Don't have an account? Register now (free) for customized features, flight alerts, and more!